Time;durP1;ratioP1;P1;durP2;ratioP2;P2;SDS_P1;SDS_P2;PMS_P1;PMS_P2;Temp;Humidity;BMP_temperature;BMP_pressure;BME280_temperature;BME280_humidity;BME280_pressure;Samples;Min_cycle;Max_cycle;Signal;HPM_P1;HPM_P2
2021/03/20 00:01:21;;;;;;;9.50;4.78;;;1.40;73.40;;;;;;5060864;28;27334;-51
2021/03/20 00:04:06;;;;;;;7.88;4.63;;;1.30;73.40;;;;;;5063857;28;27420;-49
2021/03/20 00:06:52;;;;;;;7.18;4.55;;;1.30;73.40;;;;;;5048220;28;27595;-52
2021/03/20 00:09:37;;;;;;;7.03;4.63;;;1.30;73.40;;;;;;5049254;28;27409;-53
2021/03/20 00:12:21;;;;;;;7.07;4.47;;;1.20;73.30;;;;;;5049147;28;27397;-49
2021/03/20 00:15:07;;;;;;;5.68;4.25;;;1.20;73.30;;;;;;5063839;28;27400;-52
2021/03/20 00:17:53;;;;;;;7.43;4.60;;;1.20;73.40;;;;;;5064207;28;27454;-51
2021/03/20 00:20:40;;;;;;;8.13;4.93;;;1.20;73.40;;;;;;5063826;28;27377;-50
2021/03/20 00:23:25;;;;;;;8.00;4.95;;;1.10;73.40;;;;;;5060702;28;27664;-51
2021/03/20 00:26:10;;;;;;;8.50;4.40;;;1.10;73.50;;;;;;5063740;28;27515;-50
2021/03/20 00:28:54;;;;;;;7.72;4.68;;;1.10;73.50;;;;;;5060335;28;27374;-53
2021/03/20 00:31:39;;;;;;;8.07;4.28;;;1.10;73.40;;;;;;5063665;28;27384;-50
2021/03/20 00:34:23;;;;;;;9.40;5.13;;;1.10;73.40;;;;;;5063868;28;27382;-50
2021/03/20 00:37:08;;;;;;;7.20;4.32;;;1.00;73.40;;;;;;5063648;28;27408;-51
2021/03/20 00:39:53;;;;;;;7.85;3.80;;;1.00;73.40;;;;;;5064474;28;27389;-48
2021/03/20 00:42:37;;;;;;;7.85;4.13;;;1.00;73.40;;;;;;5052359;28;27349;-52
2021/03/20 00:45:23;;;;;;;7.82;4.60;;;1.00;73.40;;;;;;5049273;28;27380;-52
2021/03/20 00:48:13;;;;;;;6.95;4.30;;;0.90;73.30;;;;;;5067210;28;27423;-53
2021/03/20 00:50:58;;;;;;;6.82;4.50;;;0.90;73.40;;;;;;5067357;28;27400;-53
2021/03/20 00:53:43;;;;;;;6.93;4.50;;;0.90;73.40;;;;;;5067320;28;27466;-48
2021/03/20 00:56:27;;;;;;;6.72;4.03;;;0.90;73.40;;;;;;5063973;28;27432;-51
2021/03/20 00:59:12;;;;;;;7.45;4.13;;;0.90;74.30;;;;;;5063695;28;27413;-48
2021/03/20 01:01:56;;;;;;;8.25;4.65;;;0.80;73.40;;;;;;5067295;28;27456;-49
2021/03/20 01:04:41;;;;;;;8.13;4.75;;;0.80;73.30;;;;;;5067072;28;27472;-49
2021/03/20 01:07:25;;;;;;;8.32;4.95;;;0.80;73.50;;;;;;5064421;28;27471;-48
2021/03/20 01:10:19;;;;;;;8.65;4.90;;;0.80;73.50;;;;;;5052015;28;27677;-48
2021/03/20 01:13:03;;;;;;;7.60;5.18;;;0.80;73.60;;;;;;5067037;28;27378;-52
2021/03/20 01:15:48;;;;;;;10.18;5.07;;;0.70;73.50;;;;;;5048801;28;27423;-52
2021/03/20 01:18:32;;;;;;;9.10;5.22;;;0.70;73.60;;;;;;5066827;28;27372;-51
2021/03/20 01:21:16;;;;;;;8.07;4.70;;;0.70;73.60;;;;;;5066629;28;27363;-50
2021/03/20 01:24:01;;;;;;;8.55;4.80;;;0.70;73.50;;;;;;5066658;28;26945;-49
2021/03/20 01:26:46;;;;;;;7.07;4.47;;;0.70;73.50;;;;;;5066157;28;27337;-47
2021/03/20 01:29:30;;;;;;;9.13;5.15;;;0.70;73.60;;;;;;5066443;28;27394;-48
2021/03/20 01:32:15;;;;;;;9.70;5.60;;;0.60;73.60;;;;;;5066417;28;27440;-48
2021/03/20 01:34:59;;;;;;;8.45;5.05;;;0.60;73.50;;;;;;5066692;28;27416;-50
2021/03/20 01:37:44;;;;;;;8.50;5.28;;;0.60;73.50;;;;;;5066630;28;27417;-48
2021/03/20 01:40:52;;;;;;;9.43;5.05;;;0.60;73.50;;;;;;5066445;28;27885;-53
2021/03/20 01:43:37;;;;;;;7.82;4.95;;;0.60;73.50;;;;;;5066188;28;27381;-53
2021/03/20 01:46:43;;;;;;;7.75;5.00;;;0.60;73.50;;;;;;5066470;28;27396;-49
2021/03/20 01:49:35;;;;;;;9.02;4.78;;;0.60;73.80;;;;;;5066159;28;27398;-53
2021/03/20 01:52:24;;;;;;;5.97;4.20;;;0.50;73.80;;;;;;5064950;28;27468;-49
2021/03/20 01:55:14;;;;;;;8.63;5.45;;;0.50;74.70;;;;;;5062809;28;27487;-53
2021/03/20 01:58:01;;;;;;;10.05;5.47;;;0.50;74.00;;;;;;5051064;28;27412;-54
2021/03/20 02:00:46;;;;;;;9.18;4.90;;;0.50;74.00;;;;;;5066277;28;27410;-53
2021/03/20 02:03:31;;;;;;;9.05;4.80;;;0.50;74.10;;;;;;5065905;28;27342;-51
2021/03/20 02:06:16;;;;;;;11.27;5.28;;;0.50;74.20;;;;;;5065849;28;27601;-50
2021/03/20 02:09:03;;;;;;;8.70;5.18;;;0.50;74.30;;;;;;5065964;28;27463;-54
2021/03/20 02:12:04;;;;;;;8.23;5.00;;;0.60;74.50;;;;;;5034280;28;27368;-54
2021/03/20 02:14:58;;;;;;;7.80;4.68;;;0.60;74.50;;;;;;5065773;28;27420;-53
2021/03/20 02:18:10;;;;;;;7.68;4.88;;;0.60;74.60;;;;;;5051397;28;27443;-51
2021/03/20 02:21:21;;;;;;;7.78;4.97;;;0.60;74.70;;;;;;5065618;28;27393;-54
2021/03/20 02:24:14;;;;;;;7.55;4.70;;;0.60;74.90;;;;;;5066140;28;27493;-54
2021/03/20 02:27:04;;;;;;;8.40;4.57;;;0.60;75.00;;;;;;5065768;28;27400;-53
2021/03/20 02:30:29;;;;;;;7.93;5.25;;;0.60;75.10;;;;;;5065534;28;27399;-49
2021/03/20 07:57:30;;;;;;;7.35;4.93;;;4.20;71.90;;;;;;5044748;27;3367150;-49
2021/03/20 08:00:43;;;;;;;7.07;5.35;;;4.30;72.10;;;;;;5112528;27;27470;-52
2021/03/20 08:03:32;;;;;;;7.28;5.20;;;4.40;71.90;;;;;;5139234;27;26902;-48
2021/03/20 08:06:27;;;;;;;7.47;5.65;;;4.50;71.90;;;;;;5142472;27;27410;-52
2021/03/20 08:09:21;;;;;;;6.28;4.70;;;4.50;71.40;;;;;;5142549;27;27937;-49
2021/03/20 08:12:09;;;;;;;6.80;5.00;;;4.60;71.30;;;;;;5142591;27;27359;-50
2021/03/20 08:14:54;;;;;;;7.50;4.30;;;4.80;70.90;;;;;;5142325;27;27389;-53
2021/03/20 08:17:38;;;;;;;4.88;4.25;;;4.90;70.40;;;;;;5126774;27;27343;-52
2021/03/20 08:20:22;;;;;;;5.70;4.32;;;4.90;69.90;;;;;;5126951;27;27317;-54
2021/03/20 08:23:26;;;;;;;5.38;4.10;;;4.90;69.90;;;;;;5142154;27;27431;-52
2021/03/20 08:26:20;;;;;;;7.03;4.60;;;4.80;70.00;;;;;;5126269;27;27485;-50
2021/03/20 08:29:22;;;;;;;4.38;3.78;;;4.90;70.00;;;;;;5142323;27;27397;-53
2021/03/20 08:32:25;;;;;;;7.07;4.60;;;5.10;70.30;;;;;;5141979;27;27509;-53
2021/03/20 08:35:26;;;;;;;6.10;4.22;;;5.10;69.30;;;;;;5123437;27;27359;-51
2021/03/20 08:38:43;;;;;;;5.45;3.90;;;5.10;68.90;;;;;;5141881;27;27400;-54
2021/03/20 08:41:47;;;;;;;4.85;3.33;;;5.10;69.00;;;;;;5097947;27;27332;-48
2021/03/20 08:45:09;;;;;;;5.30;3.85;;;5.00;69.20;;;;;;5142100;27;27328;-50
2021/03/20 08:48:03;;;;;;;4.82;3.80;;;5.20;68.60;;;;;;5141754;27;27501;-53
2021/03/20 08:50:56;;;;;;;7.03;4.15;;;5.70;67.10;;;;;;5123127;27;27430;-52
2021/03/20 08:54:09;;;;;;;3.72;3.35;;;6.10;66.00;;;;;;5141196;27;27503;-52
2021/03/20 08:57:05;;;;;;;5.68;3.22;;;6.20;65.40;;;;;;5140511;27;27398;-53
2021/03/20 08:59:54;;;;;;;4.75;3.38;;;6.30;65.30;;;;;;5126202;27;27451;-55
2021/03/20 09:02:39;;;;;;;4.65;3.13;;;7.00;64.90;;;;;;5126555;27;27470;-55
2021/03/20 09:05:35;;;;;;;4.22;2.67;;;8.00;62.20;;;;;;5126243;27;27475;-56
2021/03/20 09:08:27;;;;;;;4.28;2.78;;;9.30;59.50;;;;;;5130802;27;27405;-57
2021/03/20 09:11:22;;;;;;;3.47;2.10;;;10.70;57.30;;;;;;5113332;27;27447;-55
2021/03/20 09:14:29;;;;;;;2.63;2.10;;;12.20;54.60;;;;;;5127808;27;27351;-57
2021/03/20 09:17:25;;;;;;;2.13;1.90;;;12.60;53.60;;;;;;5112233;27;27509;-58
2021/03/20 09:20:13;;;;;;;3.28;2.38;;;12.20;53.30;;;;;;5097534;27;27592;-56
2021/03/20 09:22:58;;;;;;;4.65;2.15;;;11.70;53.50;;;;;;5124314;27;27488;-59
2021/03/20 09:25:43;;;;;;;3.17;2.28;;;11.70;53.10;;;;;;5112125;27;27007;-59
2021/03/20 09:28:50;;;;;;;2.00;1.80;;;12.20;53.10;;;;;;5111985;27;27403;-60
2021/03/20 09:31:35;;;;;;;2.92;2.38;;;13.40;49.80;;;;;;5127477;27;27383;-59
2021/03/20 09:34:34;;;;;;;2.80;2.10;;;14.50;48.30;;;;;;5127454;27;27557;-58
2021/03/20 09:37:19;;;;;;;2.50;1.63;;;15.70;45.80;;;;;;5127194;27;27415;-58
2021/03/20 09:40:04;;;;;;;3.33;2.10;;;16.60;44.40;;;;;;5127436;27;27373;-59
2021/03/20 09:42:49;;;;;;;1.98;1.70;;;17.60;42.60;;;;;;5097700;27;27457;-59
2021/03/20 09:45:33;;;;;;;2.45;1.70;;;18.50;41.10;;;;;;5127318;27;27423;-59
2021/03/20 09:48:40;;;;;;;3.90;1.92;;;19.40;39.70;;;;;;5111561;27;27415;-59
2021/03/20 09:51:54;;;;;;;3.15;1.55;;;20.30;38.40;;;;;;5127027;27;27476;-59
2021/03/20 09:54:40;;;;;;;1.88;1.70;;;21.10;37.60;;;;;;5126858;27;27442;-59
2021/03/20 09:57:27;;;;;;;2.88;1.90;;;21.80;35.30;;;;;;5126144;27;27467;-60
2021/03/20 10:00:13;;;;;;;3.38;1.88;;;22.40;34.50;;;;;;5126907;27;27352;-60
2021/03/20 10:02:57;;;;;;;1.60;1.30;;;22.90;33.90;;;;;;5127152;27;27374;-60
2021/03/20 10:05:42;;;;;;;1.90;1.35;;;23.40;33.20;;;;;;5126970;27;27957;-59
2021/03/20 10:08:26;;;;;;;2.17;1.13;;;23.50;33.10;;;;;;5126955;27;27405;-59
2021/03/20 10:11:58;;;;;;;3.72;1.58;;;22.80;33.20;;;;;;5093854;27;27399;-59
2021/03/20 10:15:02;;;;;;;2.05;1.50;;;22.60;34.30;;;;;;5093460;27;27529;-59
2021/03/20 10:18:05;;;;;;;2.20;1.40;;;22.90;33.80;;;;;;5126739;27;27422;-60
2021/03/20 10:20:55;;;;;;;1.25;1.05;;;23.40;33.40;;;;;;5107411;27;27411;-59
2021/03/20 10:23:47;;;;;;;2.90;1.30;;;23.70;32.80;;;;;;5126782;27;27414;-59
2021/03/20 10:27:17;;;;;;;1.63;1.50;;;23.10;32.30;;;;;;5126398;27;27520;-59
2021/03/20 10:30:21;;;;;;;1.73;1.25;;;21.70;33.50;;;;;;5063555;27;27366;-60
2021/03/20 10:33:22;;;;;;;2.00;1.40;;;20.50;35.80;;;;;;5126339;27;27435;-59
2021/03/20 10:36:16;;;;;;;2.00;1.50;;;20.60;36.10;;;;;;5113307;27;27470;-59
2021/03/20 10:39:01;;;;;;;3.80;1.85;;;21.00;29.60;;;;;;5126243;27;27465;-59
2021/03/20 10:41:45;;;;;;;3.45;2.20;;;20.90;26.90;;;;;;5110979;27;27344;-58
2021/03/20 10:44:40;;;;;;;1.75;1.65;;;19.90;27.10;;;;;;5107783;27;27333;-58
2021/03/20 10:47:26;;;;;;;2.53;1.88;;;18.80;27.70;;;;;;5123096;27;27367;-58
2021/03/20 10:50:38;;;;;;;2.47;1.85;;;17.60;28.50;;;;;;5126305;27;27394;-59
2021/03/20 10:53:26;;;;;;;4.97;1.92;;;16.60;29.70;;;;;;5122845;27;27289;-59
2021/03/20 10:56:23;;;;;;;2.70;2.30;;;16.40;31.00;;;;;;5125359;27;27411;-59
2021/03/20 10:59:27;;;;;;;3.00;1.52;;;17.10;30.00;;;;;;5126198;27;27389;-59
2021/03/20 11:02:23;;;;;;;3.35;2.10;;;17.80;29.00;;;;;;5126069;27;27427;-60
2021/03/20 11:05:10;;;;;;;1.95;1.60;;;18.80;28.90;;;;;;5125762;27;27421;-59
2021/03/20 11:08:02;;;;;;;4.47;2.90;;;19.20;28.40;;;;;;5125330;27;27469;-60
2021/03/20 11:10:49;;;;;;;12.20;2.53;;;19.70;27.70;;;;;;5107100;27;27411;-60
2021/03/20 11:13:44;;;;;;;6.55;2.45;;;20.40;28.00;;;;;;5125622;27;27423;-60
2021/03/20 11:16:29;;;;;;;4.93;1.67;;;21.30;28.20;;;;;;5125331;27;27513;-60
2021/03/20 11:19:29;;;;;;;5.38;2.00;;;22.20;27.70;;;;;;5122443;27;27449;-60
2021/03/20 11:22:23;;;;;;;8.18;1.67;;;22.70;27.20;;;;;;5125537;27;27413;-59
2021/03/20 11:25:16;;;;;;;2.80;1.60;;;22.90;27.50;;;;;;5106852;27;27396;-59
2021/03/20 11:28:12;;;;;;;1.67;1.33;;;22.70;27.90;;;;;;5125644;27;27406;-59
2021/03/20 11:30:57;;;;;;;6.38;1.58;;;21.90;29.40;;;;;;5110094;27;27413;-59
2021/03/20 11:33:41;;;;;;;3.53;1.65;;;21.70;29.80;;;;;;5109599;27;27474;-59
2021/03/20 11:36:28;;;;;;;3.55;1.70;;;21.50;30.60;;;;;;5096053;27;27435;-60
2021/03/20 11:39:13;;;;;;;1.80;1.70;;;21.90;30.00;;;;;;5110222;27;27372;-60
2021/03/20 11:42:06;;;;;;;2.55;1.50;;;22.60;29.40;;;;;;5110144;27;27390;-60
2021/03/20 11:44:51;;;;;;;1.67;1.40;;;23.30;29.20;;;;;;5106676;27;27431;-61
2021/03/20 11:47:36;;;;;;;1.42;1.15;;;24.20;28.50;;;;;;5110282;27;27419;-61
2021/03/20 11:50:29;;;;;;;2.80;1.42;;;24.90;27.30;;;;;;5092521;27;27936;-61
2021/03/20 11:53:25;;;;;;;3.45;1.60;;;25.80;27.70;;;;;;5125341;27;27505;-60
2021/03/20 11:56:13;;;;;;;1.55;1.10;;;26.20;27.10;;;;;;5109226;27;28603;-60
2021/03/20 11:59:03;;;;;;;2.47;1.42;;;25.50;26.20;;;;;;5125278;27;27367;-60
2021/03/20 12:01:49;;;;;;;1.70;1.60;;;24.40;26.60;;;;;;5124802;27;27591;-60
2021/03/20 12:04:33;;;;;;;2.50;1.50;;;23.20;28.40;;;;;;5124900;27;27620;-59
2021/03/20 12:07:21;;;;;;;3.75;1.38;;;22.10;29.50;;;;;;5109801;27;27439;-59
2021/03/20 12:10:16;;;;;;;2.50;1.80;;;21.20;30.50;;;;;;5124855;27;27400;-60
2021/03/20 12:13:00;;;;;;;2.58;1.50;;;21.20;31.20;;;;;;5125018;27;27392;-60
2021/03/20 12:15:54;;;;;;;3.35;1.88;;;21.70;31.40;;;;;;5124736;27;27478;-60
2021/03/20 12:18:38;;;;;;;3.17;1.70;;;22.50;29.60;;;;;;5124775;27;27396;-60
2021/03/20 12:21:23;;;;;;;2.30;1.63;;;23.30;29.10;;;;;;5095326;27;27462;-60
2021/03/20 12:24:07;;;;;;;1.83;1.40;;;24.00;28.80;;;;;;5124839;27;27474;-61
2021/03/20 12:26:52;;;;;;;1.83;1.30;;;24.60;28.30;;;;;;5095055;27;27468;-61
2021/03/20 12:29:38;;;;;;;2.95;1.55;;;25.00;27.70;;;;;;5109916;27;27452;-60
2021/03/20 12:32:23;;;;;;;2.42;1.70;;;25.20;27.70;;;;;;5109627;27;27469;-60
2021/03/20 12:35:15;;;;;;;2.28;1.08;;;25.00;28.20;;;;;;5124720;27;27449;-60
2021/03/20 12:38:26;;;;;;;1.75;1.45;;;25.10;27.80;;;;;;5124532;27;27386;-60
2021/03/20 12:41:15;;;;;;;1.67;1.40;;;25.30;28.50;;;;;;5124835;27;27454;-62
2021/03/20 12:44:09;;;;;;;6.28;2.22;;;25.50;28.70;;;;;;5127778;27;27399;-61
2021/03/20 12:47:01;;;;;;;6.43;1.75;;;25.20;23.60;;;;;;5127982;27;27378;-61
2021/03/20 12:49:46;;;;;;;5.00;1.90;;;24.40;24.90;;;;;;5128455;27;27392;-61
2021/03/20 12:52:30;;;;;;;4.65;1.70;;;24.30;26.70;;;;;;5128287;27;27407;-60
2021/03/20 12:55:15;;;;;;;8.07;1.35;;;24.60;27.20;;;;;;5097796;27;27422;-61
2021/03/20 12:58:00;;;;;;;5.00;1.70;;;24.90;26.90;;;;;;5126771;27;27407;-62
2021/03/20 13:00:45;;;;;;;6.30;1.88;;;25.30;27.20;;;;;;5127672;27;27430;-61
2021/03/20 13:03:33;;;;;;;2.38;1.35;;;25.60;27.20;;;;;;5127679;27;27423;-61
2021/03/20 13:06:17;;;;;;;1.70;1.30;;;25.80;26.90;;;;;;5127757;27;27410;-62
2021/03/20 13:09:02;;;;;;;1.65;1.25;;;25.90;26.30;;;;;;5127573;27;27416;-62
2021/03/20 13:11:47;;;;;;;1.98;1.40;;;25.90;26.90;;;;;;5127581;27;27482;-62
2021/03/20 13:14:33;;;;;;;3.22;1.45;;;25.90;27.70;;;;;;5127956;27;27469;-62
2021/03/20 13:17:18;;;;;;;4.40;1.30;;;25.90;27.30;;;;;;5127933;27;27321;-62
2021/03/20 13:20:05;;;;;;;3.28;1.77;;;25.90;27.50;;;;;;5127546;27;27426;-62
2021/03/20 13:22:50;;;;;;;2.50;1.25;;;25.90;26.90;;;;;;5127222;27;27346;-63
2021/03/20 13:25:36;;;;;;;1.40;1.25;;;25.90;27.70;;;;;;5127480;27;27323;-62
2021/03/20 13:28:21;;;;;;;2.22;1.48;;;26.10;27.40;;;;;;5127384;27;27331;-63
2021/03/20 13:31:06;;;;;;;1.75;1.40;;;26.20;27.30;;;;;;5127317;27;27946;-62
2021/03/20 13:33:50;;;;;;;2.08;1.40;;;26.20;27.50;;;;;;5127598;27;27351;-62
2021/03/20 13:36:38;;;;;;;1.75;1.40;;;26.10;27.20;;;;;;5127549;27;27402;-62
2021/03/20 13:39:22;;;;;;;1.52;1.33;;;26.10;26.70;;;;;;5127454;27;27469;-62
2021/03/20 13:42:07;;;;;;;2.83;1.42;;;26.00;26.90;;;;;;5127296;27;27647;-61
2021/03/20 13:44:52;;;;;;;2.35;1.40;;;25.90;27.20;;;;;;5127526;27;27328;-62
2021/03/20 13:47:36;;;;;;;1.65;1.33;;;25.80;27.10;;;;;;5126741;27;27401;-61
2021/03/20 13:50:21;;;;;;;1.95;1.50;;;25.80;27.20;;;;;;5126601;27;27368;-61
2021/03/20 13:53:17;;;;;;;4.53;1.70;;;25.80;27.60;;;;;;5127087;27;27979;-61
2021/03/20 13:56:04;;;;;;;4.43;1.80;;;25.60;26.70;;;;;;5112940;27;27628;-60
2021/03/20 13:58:49;;;;;;;2.03;1.75;;;25.20;27.10;;;;;;5106636;28;27450;-61
2021/03/20 14:01:33;;;;;;;4.18;1.42;;;24.90;26.60;;;;;;5106539;28;27420;-60
2021/03/20 14:04:18;;;;;;;2.05;1.20;;;24.70;27.20;;;;;;5106209;28;27853;-61
2021/03/20 14:07:10;;;;;;;2.00;1.60;;;24.50;27.40;;;;;;5106176;28;27486;-61
2021/03/20 14:09:55;;;;;;;2.90;1.50;;;24.20;28.00;;;;;;5106141;28;27411;-61
2021/03/20 14:12:40;;;;;;;4.10;1.70;;;24.10;27.70;;;;;;5106047;28;27370;-61
2021/03/20 14:15:24;;;;;;;2.63;1.50;;;23.70;27.90;;;;;;5106249;28;27348;-61
2021/03/20 14:18:15;;;;;;;1.65;1.42;;;23.40;27.80;;;;;;5105698;28;27416;-61
2021/03/20 14:21:00;;;;;;;1.73;1.48;;;23.00;28.20;;;;;;5106265;28;27457;-61
2021/03/20 14:23:49;;;;;;;1.58;1.40;;;22.60;28.30;;;;;;5105907;28;27478;-61
2021/03/20 14:26:33;;;;;;;1.98;1.50;;;22.20;28.90;;;;;;5105588;28;27377;-61
2021/03/20 14:29:18;;;;;;;1.92;1.42;;;21.90;29.00;;;;;;5106063;28;27360;-61
2021/03/20 14:32:03;;;;;;;5.20;1.90;;;21.60;29.10;;;;;;5106074;28;27375;-60
2021/03/20 14:34:47;;;;;;;2.13;1.42;;;21.40;29.30;;;;;;5105716;28;27341;-61
2021/03/20 14:37:32;;;;;;;3.20;1.92;;;21.10;29.60;;;;;;5105862;28;27976;-60
2021/03/20 14:40:18;;;;;;;3.63;1.65;;;20.90;29.90;;;;;;5105823;28;27411;-60
2021/03/20 14:43:03;;;;;;;3.17;1.75;;;20.60;29.70;;;;;;5105347;28;26907;-60
2021/03/20 14:45:48;;;;;;;3.10;1.75;;;20.30;29.90;;;;;;5102166;28;27398;-61
2021/03/20 14:48:33;;;;;;;3.03;1.38;;;20.00;30.20;;;;;;5105437;28;27382;-60
2021/03/20 14:51:17;;;;;;;2.28;1.70;;;19.80;30.40;;;;;;5105721;28;27397;-61
2021/03/20 14:54:02;;;;;;;3.63;1.80;;;19.50;30.70;;;;;;5105747;28;27408;-61
2021/03/20 14:56:46;;;;;;;2.83;2.05;;;19.30;30.70;;;;;;5082130;28;27403;-60
2021/03/20 14:59:31;;;;;;;4.03;1.88;;;19.10;31.10;;;;;;5085178;28;27470;-60
2021/03/20 15:02:15;;;;;;;3.33;2.20;;;18.80;31.50;;;;;;5085073;28;27481;-60
2021/03/20 15:04:59;;;;;;;2.97;1.85;;;18.50;31.40;;;;;;5084545;28;27461;-60
2021/03/20 15:07:44;;;;;;;3.15;1.85;;;18.30;32.00;;;;;;5084995;28;27400;-60
2021/03/20 15:10:37;;;;;;;3.90;2.20;;;18.00;32.10;;;;;;5084573;28;27477;-60
2021/03/20 15:13:22;;;;;;;5.03;2.50;;;17.80;32.60;;;;;;5084675;28;27317;-60
2021/03/20 15:16:07;;;;;;;4.72;2.72;;;17.40;32.20;;;;;;5084726;28;27541;-59
2021/03/20 15:18:51;;;;;;;4.88;2.85;;;17.10;33.10;;;;;;5084960;28;27308;-60
2021/03/20 15:21:36;;;;;;;3.10;2.30;;;16.90;34.20;;;;;;5084548;28;27984;-60
2021/03/20 15:24:21;;;;;;;4.00;2.42;;;16.60;33.30;;;;;;5084839;28;27503;-60
2021/03/20 15:27:06;;;;;;;3.53;2.13;;;16.40;33.50;;;;;;5084274;28;27343;-60
2021/03/20 15:29:50;;;;;;;2.30;1.95;;;16.20;33.90;;;;;;5080802;28;27324;-60
2021/03/20 15:32:35;;;;;;;3.35;2.47;;;16.00;34.50;;;;;;5084396;28;27395;-60
2021/03/20 15:35:19;;;;;;;3.05;1.90;;;15.90;34.90;;;;;;5083827;28;27607;-60
2021/03/20 15:38:04;;;;;;;3.38;2.58;;;15.70;35.20;;;;;;5084068;28;27344;-60
2021/03/20 15:40:51;;;;;;;4.25;2.28;;;15.60;35.60;;;;;;5084328;28;27324;-60
2021/03/20 15:43:36;;;;;;;3.67;2.75;;;15.50;35.80;;;;;;5084256;28;27337;-60
2021/03/20 15:46:22;;;;;;;2.55;2.13;;;15.40;36.00;;;;;;5080329;28;27427;-60
2021/03/20 15:49:07;;;;;;;4.72;2.92;;;15.20;35.60;;;;;;5084525;28;27406;-60
2021/03/20 15:51:51;;;;;;;3.10;2.58;;;15.00;36.10;;;;;;5084490;28;27382;-60
2021/03/20 15:54:35;;;;;;;3.50;3.00;;;14.90;36.40;;;;;;5084086;28;27392;-59
2021/03/20 15:57:20;;;;;;;3.38;2.20;;;14.70;36.90;;;;;;5097997;28;27332;-58
2021/03/20 16:00:06;;;;;;;2.85;2.25;;;14.50;36.90;;;;;;5104453;28;27337;-59
2021/03/20 16:02:51;;;;;;;3.13;2.30;;;14.30;37.10;;;;;;5101396;28;27399;-59
2021/03/20 16:05:36;;;;;;;4.63;2.20;;;14.10;37.10;;;;;;5088642;28;27402;-59
2021/03/20 16:08:25;;;;;;;3.97;2.25;;;14.00;37.40;;;;;;5104373;28;27514;-59
2021/03/20 16:11:10;;;;;;;3.17;2.45;;;13.80;37.50;;;;;;5104642;28;27403;-59
2021/03/20 16:13:55;;;;;;;8.27;5.35;;;13.60;37.60;;;;;;5104283;28;27395;-59
2021/03/20 16:16:39;;;;;;;14.18;8.45;;;13.40;37.90;;;;;;5104486;28;27461;-59
2021/03/20 16:19:24;;;;;;;14.48;8.15;;;13.20;38.10;;;;;;5108229;28;27499;-59
2021/03/20 16:22:09;;;;;;;10.07;7.43;;;13.00;38.70;;;;;;5108230;28;27407;-59
2021/03/20 16:24:53;;;;;;;10.27;6.63;;;12.80;39.30;;;;;;5108248;28;27494;-60
2021/03/20 16:27:38;;;;;;;7.35;6.05;;;12.60;39.40;;;;;;5107424;28;27415;-59
2021/03/20 16:30:26;;;;;;;11.10;5.55;;;12.50;39.90;;;;;;5107710;28;27496;-60
2021/03/20 16:33:16;;;;;;;8.05;5.65;;;12.30;40.50;;;;;;5105433;28;27457;-59
2021/03/20 16:36:01;;;;;;;8.07;5.00;;;12.10;40.80;;;;;;5104547;28;27352;-59
2021/03/20 16:38:47;;;;;;;12.35;5.60;;;12.00;40.60;;;;;;5107576;28;27957;-59
2021/03/20 16:41:34;;;;;;;10.93;5.20;;;11.80;40.70;;;;;;5107741;28;27309;-59
2021/03/20 16:44:18;;;;;;;9.90;5.30;;;11.60;40.80;;;;;;5104214;28;27404;-59
2021/03/20 16:47:03;;;;;;;8.70;4.53;;;11.40;41.10;;;;;;5107171;28;27478;-59
2021/03/20 16:49:47;;;;;;;8.73;4.28;;;11.30;41.20;;;;;;5107635;28;27404;-59
2021/03/20 16:52:32;;;;;;;6.00;4.32;;;11.10;41.50;;;;;;5092397;28;27351;-59
2021/03/20 16:55:18;;;;;;;6.85;3.70;;;11.00;42.00;;;;;;5107620;28;27357;-59
2021/03/20 16:58:02;;;;;;;5.00;3.47;;;10.90;42.00;;;;;;5107554;28;27459;-59
2021/03/20 17:00:47;;;;;;;8.48;3.33;;;10.80;42.30;;;;;;5106799;28;27861;-59
2021/03/20 17:03:32;;;;;;;7.15;3.60;;;10.60;42.60;;;;;;5107140;28;27387;-59
2021/03/20 17:06:19;;;;;;;5.72;3.35;;;10.50;42.80;;;;;;5107000;28;27406;-59
2021/03/20 17:09:05;;;;;;;8.00;3.60;;;10.30;42.90;;;;;;5107336;28;27459;-59
2021/03/20 17:11:50;;;;;;;6.95;3.60;;;10.20;43.20;;;;;;5107323;28;27500;-59
2021/03/20 17:14:35;;;;;;;6.07;3.03;;;10.10;43.40;;;;;;5088472;28;27474;-59
2021/03/20 17:17:19;;;;;;;6.85;3.58;;;10.00;43.80;;;;;;5107000;28;27455;-58
2021/03/20 17:20:08;;;;;;;4.43;2.78;;;9.80;44.00;;;;;;5107273;28;27400;-58
2021/03/20 17:22:52;;;;;;;5.18;2.78;;;9.70;44.40;;;;;;5103531;28;27327;-58
2021/03/20 17:25:37;;;;;;;4.65;2.67;;;9.60;44.40;;;;;;5106738;28;27423;-58
2021/03/20 17:28:28;;;;;;;4.40;2.88;;;9.40;44.70;;;;;;5106096;27;27404;-58
2021/03/20 17:31:13;;;;;;;5.60;2.40;;;9.30;44.80;;;;;;5103442;28;27453;-59
2021/03/20 17:33:58;;;;;;;3.65;2.47;;;9.20;45.10;;;;;;5106656;28;27922;-58
2021/03/20 17:36:46;;;;;;;5.07;2.72;;;9.10;45.30;;;;;;5106873;28;27412;-59
2021/03/20 17:39:31;;;;;;;4.45;2.38;;;8.90;45.50;;;;;;5103661;28;27392;-58
2021/03/20 17:42:15;;;;;;;4.28;2.33;;;8.80;45.70;;;;;;5106816;28;27453;-58
2021/03/20 17:45:02;;;;;;;4.00;2.75;;;8.70;46.00;;;;;;5106766;28;27399;-58
2021/03/20 17:47:47;;;;;;;3.50;2.60;;;8.60;46.00;;;;;;5090894;28;27476;-59
2021/03/20 17:50:43;;;;;;;5.97;2.50;;;8.50;46.30;;;;;;5106498;28;27467;-58
2021/03/20 17:53:27;;;;;;;6.45;2.75;;;8.40;46.80;;;;;;5106458;28;27381;-58
2021/03/20 17:56:12;;;;;;;2.67;2.03;;;8.30;47.00;;;;;;5106191;28;27448;-58
2021/03/20 17:58:56;;;;;;;2.90;2.53;;;8.20;47.20;;;;;;5106526;28;27481;-58
2021/03/20 18:01:41;;;;;;;3.55;2.38;;;8.10;47.30;;;;;;5106296;28;27416;-58
2021/03/20 18:04:25;;;;;;;3.47;2.15;;;8.00;47.20;;;;;;5106259;28;27524;-58
2021/03/20 18:07:10;;;;;;;3.53;2.17;;;7.90;47.30;;;;;;5106125;28;27414;-59
2021/03/20 18:09:54;;;;;;;3.50;2.10;;;7.90;47.60;;;;;;5106072;28;27475;-58
2021/03/20 18:12:38;;;;;;;3.08;2.05;;;7.80;47.80;;;;;;5106361;28;27415;-58
2021/03/20 18:15:23;;;;;;;3.65;2.28;;;7.70;48.60;;;;;;5106030;28;27412;-58
2021/03/20 18:18:07;;;;;;;5.07;3.33;;;7.60;48.20;;;;;;5106491;28;27416;-58
2021/03/20 18:20:53;;;;;;;9.73;4.63;;;7.50;48.30;;;;;;5105736;28;27564;-58
2021/03/20 18:23:37;;;;;;;5.38;3.60;;;7.50;48.60;;;;;;5106047;28;27410;-58
2021/03/20 18:26:22;;;;;;;6.72;4.10;;;7.40;48.70;;;;;;5105974;28;27330;-58
2021/03/20 18:29:06;;;;;;;5.38;4.25;;;7.40;48.80;;;;;;5106011;28;27324;-58
2021/03/20 18:31:51;;;;;;;7.40;3.65;;;7.30;49.00;;;;;;5106010;28;27450;-58
2021/03/20 18:34:35;;;;;;;4.93;3.33;;;7.30;49.20;;;;;;5105995;28;27357;-58
2021/03/20 18:37:20;;;;;;;4.22;3.03;;;7.20;49.30;;;;;;5105931;28;27348;-58
2021/03/20 18:40:06;;;;;;;5.68;3.38;;;7.20;49.40;;;;;;5104834;28;27352;-57
2021/03/20 18:42:51;;;;;;;4.22;3.22;;;7.10;49.50;;;;;;5102250;28;27441;-58
2021/03/20 18:45:36;;;;;;;4.88;3.08;;;7.10;49.60;;;;;;5102192;28;27395;-58
2021/03/20 18:48:21;;;;;;;6.22;3.47;;;7.00;49.80;;;;;;5105193;28;27641;-58
2021/03/20 18:51:07;;;;;;;6.20;3.15;;;7.00;49.90;;;;;;5105614;28;27375;-58
2021/03/20 18:53:51;;;;;;;4.57;2.70;;;6.90;50.00;;;;;;5105333;28;27446;-58
2021/03/20 18:56:36;;;;;;;5.95;2.85;;;6.90;50.20;;;;;;5102878;28;27685;-58
2021/03/20 18:59:21;;;;;;;6.18;2.97;;;6.80;50.30;;;;;;5105356;28;27353;-58
2021/03/20 19:02:05;;;;;;;4.65;3.30;;;6.80;50.50;;;;;;5087045;28;27362;-57
2021/03/20 19:04:50;;;;;;;4.57;3.08;;;6.70;50.60;;;;;;5105204;28;27325;-58
2021/03/20 19:07:34;;;;;;;4.57;3.65;;;6.70;50.70;;;;;;5104976;28;27399;-58
2021/03/20 19:10:21;;;;;;;4.25;3.25;;;6.70;50.90;;;;;;5101911;28;27364;-57
2021/03/20 19:13:07;;;;;;;6.18;2.67;;;6.60;50.90;;;;;;5105448;28;27339;-58
2021/03/20 19:15:52;;;;;;;4.82;3.08;;;6.60;51.10;;;;;;5089780;28;27336;-58
2021/03/20 19:18:39;;;;;;;4.63;3.05;;;6.60;51.30;;;;;;5105351;28;27468;-58
2021/03/20 19:21:23;;;;;;;5.35;2.90;;;6.50;51.40;;;;;;5105226;28;27450;-58
2021/03/20 19:24:09;;;;;;;4.40;2.95;;;6.50;51.40;;;;;;5086601;28;28069;-57
2021/03/20 19:26:54;;;;;;;5.35;3.53;;;6.50;51.50;;;;;;5086195;28;27475;-58
2021/03/20 19:29:38;;;;;;;4.57;3.38;;;6.40;51.70;;;;;;5086756;28;27485;-58
2021/03/20 19:32:23;;;;;;;12.70;5.80;;;6.40;51.70;;;;;;5104826;28;27462;-58
2021/03/20 19:35:09;;;;;;;9.35;5.28;;;6.40;51.90;;;;;;5101719;28;27422;-58
2021/03/20 19:37:54;;;;;;;11.32;6.78;;;6.30;51.90;;;;;;5101444;28;27404;-58
2021/03/20 19:40:39;;;;;;;10.25;6.05;;;6.30;52.00;;;;;;5105034;28;27490;-58
2021/03/20 19:43:24;;;;;;;14.77;6.93;;;6.30;52.10;;;;;;5104407;28;27414;-58
2021/03/20 19:46:13;;;;;;;14.82;7.85;;;6.20;52.30;;;;;;5104535;28;27909;-58
2021/03/20 19:48:58;;;;;;;15.27;7.18;;;6.20;52.40;;;;;;5104552;28;27400;-58
2021/03/20 19:51:43;;;;;;;13.52;7.05;;;6.20;52.40;;;;;;5104296;28;27344;-57
2021/03/20 19:54:28;;;;;;;16.10;8.10;;;6.20;52.60;;;;;;5104818;28;27366;-57
2021/03/20 19:57:16;;;;;;;18.17;8.05;;;6.10;52.70;;;;;;5104026;28;27435;-58
2021/03/20 20:00:00;;;;;;;13.93;7.18;;;6.10;52.80;;;;;;5104494;28;27492;-58
2021/03/20 20:02:45;;;;;;;11.68;6.38;;;6.10;52.90;;;;;;5104775;28;27398;-58
2021/03/20 20:05:29;;;;;;;13.43;6.82;;;6.00;52.90;;;;;;5104439;28;27313;-57